createdAt,value
2017-09-23T00:00:07.521Z,1016.69
2017-09-23T00:00:33.686Z,1016.71
2017-09-23T00:00:59.846Z,1016.69
2017-09-23T00:01:26.006Z,1016.71
2017-09-23T00:01:52.168Z,1016.72
2017-09-23T00:02:18.329Z,1016.69
2017-09-23T00:02:44.485Z,1016.71
2017-09-23T00:03:10.642Z,1016.7
2017-09-23T00:03:36.808Z,1016.7
2017-09-23T00:04:02.962Z,1016.74
2017-09-23T00:04:29.153Z,1016.72
2017-09-23T00:04:55.314Z,1016.72
2017-09-23T00:05:21.471Z,1016.75
2017-09-23T00:05:47.625Z,1016.73
2017-09-23T00:06:13.791Z,1016.74
2017-09-23T00:06:39.951Z,1016.76
2017-09-23T00:07:06.107Z,1016.76
2017-09-23T00:07:32.272Z,1016.77
2017-09-23T00:07:58.453Z,1016.75
2017-09-23T00:08:24.613Z,1016.78
2017-09-23T00:08:50.773Z,1016.8
2017-09-23T00:09:16.930Z,1016.79
2017-09-23T00:09:43.096Z,1016.79
2017-09-23T00:10:09.249Z,1016.78
2017-09-23T00:10:35.441Z,1016.79
2017-09-23T00:11:01.597Z,1016.81
2017-09-23T00:11:27.760Z,1016.82
2017-09-23T00:11:53.925Z,1016.79
2017-09-23T00:12:20.079Z,1016.79
2017-09-23T00:12:46.236Z,1016.79
2017-09-23T00:13:12.402Z,1016.81
2017-09-23T00:13:38.557Z,1016.8
2017-09-23T00:14:04.711Z,1016.78
2017-09-23T00:14:30.874Z,1016.82
2017-09-23T00:14:57.034Z,1016.83
2017-09-23T00:15:23.196Z,1016.78
2017-09-23T00:15:49.364Z,1016.8
2017-09-23T00:16:15.527Z,1016.81
2017-09-23T00:16:41.680Z,1016.79
2017-09-23T00:17:07.837Z,1016.8
2017-09-23T00:17:34.003Z,1016.81
2017-09-23T00:18:00.187Z,1016.82
2017-09-23T00:18:26.347Z,1016.82
2017-09-23T00:18:52.504Z,1016.84
2017-09-23T00:19:18.660Z,1016.82
2017-09-23T00:19:44.818Z,1016.84
2017-09-23T00:20:10.984Z,1016.79
2017-09-23T00:20:37.149Z,1016.85
2017-09-23T00:21:03.307Z,1016.86
2017-09-23T00:21:29.469Z,1016.85
2017-09-23T00:21:55.627Z,1016.88
2017-09-23T00:22:21.784Z,1016.86
2017-09-23T00:22:47.945Z,1016.86
2017-09-23T00:23:14.105Z,1016.9
2017-09-23T00:23:40.267Z,1016.88
2017-09-23T00:24:06.424Z,1016.88
2017-09-23T00:24:32.589Z,1016.88
2017-09-23T00:24:58.743Z,1016.88
2017-09-23T00:25:24.906Z,1016.86
2017-09-23T00:25:51.072Z,1016.9
2017-09-23T00:26:17.227Z,1016.88
2017-09-23T00:26:43.386Z,1016.88
2017-09-23T00:27:09.550Z,1016.86
2017-09-23T00:27:35.708Z,1016.87
2017-09-23T00:28:01.870Z,1016.87
2017-09-23T00:28:28.025Z,1016.85
2017-09-23T00:28:54.190Z,1016.87
2017-09-23T00:29:20.353Z,1016.8
2017-09-23T00:29:46.511Z,1016.84
2017-09-23T00:30:12.696Z,1016.83
2017-09-23T00:30:38.861Z,1016.81
2017-09-23T00:31:05.016Z,1016.78
2017-09-23T00:31:31.180Z,1016.76
2017-09-23T00:31:57.341Z,1016.77
2017-09-23T00:32:23.495Z,1016.77
2017-09-23T00:32:49.673Z,1016.76
2017-09-23T00:33:15.844Z,1016.71
2017-09-23T00:33:42.004Z,1016.73
2017-09-23T00:34:08.160Z,1016.74
2017-09-23T00:34:34.325Z,1016.74
2017-09-23T00:35:00.478Z,1016.69
2017-09-23T00:35:26.638Z,1016.75
2017-09-23T00:35:52.804Z,1016.72
2017-09-23T00:36:18.964Z,1016.7
2017-09-23T00:36:45.115Z,1016.71
2017-09-23T00:37:11.283Z,1016.71
2017-09-23T00:37:37.651Z,1016.72
2017-09-23T00:38:03.812Z,1016.71
2017-09-23T00:38:29.971Z,1016.7
2017-09-23T00:38:56.128Z,1016.75
2017-09-23T00:39:22.287Z,1016.69
2017-09-23T00:39:48.444Z,1016.72
2017-09-23T00:40:14.604Z,1016.71
2017-09-23T00:40:40.769Z,1016.68
2017-09-23T00:41:06.934Z,1016.7
2017-09-23T00:41:33.091Z,1016.69
2017-09-23T00:41:59.256Z,1016.68
2017-09-23T00:42:25.411Z,1016.69
2017-09-23T00:42:51.573Z,1016.65
2017-09-23T00:43:17.729Z,1016.66
2017-09-23T00:43:43.887Z,1016.69
2017-09-23T00:44:10.059Z,1016.68
2017-09-23T00:44:36.208Z,1016.68
2017-09-23T00:45:02.364Z,1016.67
2017-09-23T00:45:28.523Z,1016.67
2017-09-23T00:45:54.689Z,1016.65
2017-09-23T00:46:20.852Z,1016.68
2017-09-23T00:46:47.039Z,1016.69
2017-09-23T00:47:13.202Z,1016.65
2017-09-23T00:47:39.360Z,1016.67
2017-09-23T00:48:05.518Z,1016.7
2017-09-23T00:48:31.684Z,1016.65
2017-09-23T00:48:57.840Z,1016.68
2017-09-23T00:49:24.000Z,1016.67
2017-09-23T00:49:50.164Z,1016.66
2017-09-23T00:50:16.317Z,1016.67
2017-09-23T00:50:42.485Z,1016.64
2017-09-23T00:51:08.646Z,1016.69
2017-09-23T00:51:34.801Z,1016.66
2017-09-23T00:52:00.964Z,1016.67
2017-09-23T00:52:27.119Z,1016.7
2017-09-23T00:52:53.278Z,1016.66
2017-09-23T00:53:19.441Z,1016.68
2017-09-23T00:53:45.598Z,1016.65
2017-09-23T00:54:11.762Z,1016.67
2017-09-23T00:54:37.918Z,1016.67
2017-09-23T00:55:04.083Z,1016.66
2017-09-23T00:55:30.245Z,1016.65
2017-09-23T00:55:56.400Z,1016.66
2017-09-23T00:56:22.559Z,1016.67
2017-09-23T00:56:48.725Z,1016.67
2017-09-23T00:57:14.884Z,1016.68
2017-09-23T00:57:41.039Z,1016.71
2017-09-23T00:58:07.206Z,1016.71
2017-09-23T00:58:33.357Z,1016.66
2017-09-23T00:58:59.516Z,1016.69
2017-09-23T00:59:25.671Z,1016.66
2017-09-23T00:59:51.837Z,1016.68
2017-09-23T01:00:17.996Z,1016.69
2017-09-23T01:00:44.162Z,1016.7
2017-09-23T01:01:10.321Z,1016.69
2017-09-23T01:01:36.476Z,1016.68
2017-09-23T01:02:02.640Z,1016.69
2017-09-23T01:02:28.796Z,1016.69
2017-09-23T01:02:54.960Z,1016.68
2017-09-23T01:03:21.127Z,1016.67
2017-09-23T01:03:47.289Z,1016.62
2017-09-23T01:04:13.438Z,1016.65
2017-09-23T01:04:39.598Z,1016.64
2017-09-23T01:05:05.755Z,1016.63
2017-09-23T01:05:31.910Z,1016.59
2017-09-23T01:05:58.075Z,1016.65
2017-09-23T01:06:24.236Z,1016.6
2017-09-23T01:06:50.390Z,1016.6
2017-09-23T01:07:16.548Z,1016.62
2017-09-23T01:07:42.713Z,1016.6
2017-09-23T01:08:08.874Z,1016.61
2017-09-23T01:08:35.035Z,1016.6
2017-09-23T01:09:01.195Z,1016.6
2017-09-23T01:09:27.351Z,1016.61
2017-09-23T01:09:53.507Z,1016.61
2017-09-23T01:10:19.666Z,1016.6
2017-09-23T01:10:45.860Z,1016.61
2017-09-23T01:11:12.020Z,1016.61
2017-09-23T01:11:38.175Z,1016.61
2017-09-23T01:12:04.338Z,1016.6
2017-09-23T01:12:30.497Z,1016.59
2017-09-23T01:12:56.652Z,1016.57
2017-09-23T01:13:22.818Z,1016.59
2017-09-23T01:13:48.974Z,1016.58
2017-09-23T01:14:15.138Z,1016.58
2017-09-23T01:14:41.298Z,1016.58
2017-09-23T01:15:07.454Z,1016.61
2017-09-23T01:15:33.641Z,1016.6
2017-09-23T01:15:59.856Z,1016.61
2017-09-23T01:16:25.992Z,1016.59
2017-09-23T01:16:52.146Z,1016.62
2017-09-23T01:17:18.309Z,1016.57
2017-09-23T01:17:44.465Z,1016.62
2017-09-23T01:18:10.625Z,1016.65
2017-09-23T01:18:36.787Z,1016.6
2017-09-23T01:19:02.944Z,1016.63
2017-09-23T01:19:29.108Z,1016.61
2017-09-23T01:19:55.268Z,1016.63
2017-09-23T01:20:21.428Z,1016.64
2017-09-23T01:20:47.582Z,1016.65
2017-09-23T01:21:13.752Z,1016.65
2017-09-23T01:21:39.902Z,1016.65
2017-09-23T01:22:06.064Z,1016.66
2017-09-23T01:22:32.226Z,1016.67
2017-09-23T01:22:58.389Z,1016.68
2017-09-23T01:23:24.546Z,1016.68
2017-09-23T01:23:50.721Z,1016.68
2017-09-23T01:24:16.901Z,1016.69
2017-09-23T01:24:43.065Z,1016.71
2017-09-23T01:25:09.230Z,1016.69
2017-09-23T01:25:35.387Z,1016.68
2017-09-23T01:26:01.538Z,1016.69
2017-09-23T01:26:27.702Z,1016.67
2017-09-23T01:26:53.859Z,1016.68
2017-09-23T01:27:20.014Z,1016.64
2017-09-23T01:27:46.179Z,1016.65
2017-09-23T01:28:12.335Z,1016.66
2017-09-23T01:28:38.498Z,1016.65
2017-09-23T01:29:04.657Z,1016.66
2017-09-23T01:29:30.849Z,1016.67
2017-09-23T01:29:57.007Z,1016.67
2017-09-23T01:30:23.173Z,1016.68
2017-09-23T01:30:49.324Z,1016.64
2017-09-23T01:31:15.490Z,1016.66
2017-09-23T01:31:41.652Z,1016.66
2017-09-23T01:32:07.814Z,1016.64
2017-09-23T01:32:33.968Z,1016.67
2017-09-23T01:33:00.163Z,1016.64
2017-09-23T01:33:26.319Z,1016.69
2017-09-23T01:33:52.507Z,1016.68
2017-09-23T01:34:18.673Z,1016.66
2017-09-23T01:34:44.834Z,1016.67
2017-09-23T01:35:10.990Z,1016.64
2017-09-23T01:35:37.154Z,1016.66
2017-09-23T01:36:03.313Z,1016.68
2017-09-23T01:36:29.469Z,1016.69
2017-09-23T01:36:55.631Z,1016.68
2017-09-23T01:37:21.817Z,1016.7
2017-09-23T01:37:47.973Z,1016.67
2017-09-23T01:38:14.131Z,1016.71
2017-09-23T01:38:40.295Z,1016.7
2017-09-23T01:39:06.452Z,1016.68
2017-09-23T01:39:32.612Z,1016.69
2017-09-23T01:39:58.778Z,1016.72
2017-09-23T01:40:24.932Z,1016.7
2017-09-23T01:40:51.097Z,1016.72
2017-09-23T01:41:17.255Z,1016.67
2017-09-23T01:41:43.411Z,1016.69
2017-09-23T01:42:09.601Z,1016.67
2017-09-23T01:42:35.766Z,1016.67
2017-09-23T01:43:01.925Z,1016.71
2017-09-23T01:43:28.079Z,1016.67
2017-09-23T01:43:54.245Z,1016.69
2017-09-23T01:44:20.403Z,1016.69
2017-09-23T01:44:46.559Z,1016.67
2017-09-23T01:45:12.726Z,1016.7
2017-09-23T01:45:38.920Z,1016.69
2017-09-23T01:46:05.051Z,1016.71
2017-09-23T01:46:31.206Z,1016.72
2017-09-23T01:46:57.389Z,1016.7
2017-09-23T01:47:23.544Z,1016.73
2017-09-23T01:47:49.705Z,1016.72
2017-09-23T01:48:15.890Z,1016.69
2017-09-23T01:48:42.048Z,1016.69
2017-09-23T01:49:08.216Z,1016.74
2017-09-23T01:49:34.378Z,1016.7
2017-09-23T01:50:00.536Z,1016.7
2017-09-23T01:50:26.703Z,1016.7
2017-09-23T01:50:52.858Z,1016.72
2017-09-23T01:51:19.021Z,1016.65
2017-09-23T01:51:45.178Z,1016.66
2017-09-23T01:52:11.339Z,1016.67
2017-09-23T01:52:37.498Z,1016.66
2017-09-23T01:53:03.712Z,1016.67
2017-09-23T01:53:29.873Z,1016.63
2017-09-23T01:53:56.042Z,1016.66
2017-09-23T01:54:22.195Z,1016.66
2017-09-23T01:54:48.358Z,1016.64
2017-09-23T01:55:14.514Z,1016.66
2017-09-23T01:55:40.673Z,1016.61
2017-09-23T01:56:06.832Z,1016.66
2017-09-23T01:56:33.000Z,1016.64
2017-09-23T01:56:59.151Z,1016.65
2017-09-23T01:57:25.308Z,1016.64
2017-09-23T01:57:51.470Z,1016.64
2017-09-23T01:58:17.626Z,1016.64
2017-09-23T01:58:43.787Z,1016.67
2017-09-23T01:59:09.941Z,1016.64
2017-09-23T01:59:36.102Z,1016.65
2017-09-23T02:00:02.268Z,1016.64
2017-09-23T02:00:28.421Z,1016.64
2017-09-23T02:00:54.606Z,1016.66
2017-09-23T02:01:20.771Z,1016.66
2017-09-23T02:01:46.927Z,1016.61
2017-09-23T02:02:13.093Z,1016.66
2017-09-23T02:02:39.245Z,1016.66
2017-09-23T02:03:05.439Z,1016.64
2017-09-23T02:03:31.599Z,1016.68
2017-09-23T02:03:57.759Z,1016.67
2017-09-23T02:04:23.949Z,1016.68
2017-09-23T02:04:50.110Z,1016.68
2017-09-23T02:05:16.265Z,1016.7
2017-09-23T02:05:42.426Z,1016.69
2017-09-23T02:06:08.592Z,1016.72
2017-09-23T02:06:34.753Z,1016.68
2017-09-23T02:07:00.906Z,1016.71
2017-09-23T02:07:27.069Z,1016.69
2017-09-23T02:07:53.232Z,1016.7
2017-09-23T02:08:19.390Z,1016.68
2017-09-23T02:08:45.549Z,1016.69
2017-09-23T02:09:11.714Z,1016.68
2017-09-23T02:09:37.864Z,1016.71
2017-09-23T02:10:04.024Z,1016.69
2017-09-23T02:10:30.216Z,1016.71
2017-09-23T02:10:56.367Z,1016.69
2017-09-23T02:11:22.521Z,1016.71
2017-09-23T02:11:48.683Z,1016.68
2017-09-23T02:12:14.839Z,1016.72
2017-09-23T02:12:41.000Z,1016.74
2017-09-23T02:13:07.162Z,1016.76
2017-09-23T02:13:33.352Z,1016.74
2017-09-23T02:13:59.512Z,1016.77
2017-09-23T02:14:25.697Z,1016.75
2017-09-23T02:14:51.853Z,1016.77
2017-09-23T02:15:18.056Z,1016.74
2017-09-23T02:15:44.217Z,1016.76
2017-09-23T02:16:10.401Z,1016.79
2017-09-23T02:16:36.558Z,1016.76
2017-09-23T02:17:02.724Z,1016.8
2017-09-23T02:17:28.887Z,1016.77
2017-09-23T02:17:55.046Z,1016.81
2017-09-23T02:18:21.205Z,1016.8
2017-09-23T02:18:47.363Z,1016.79
2017-09-23T02:19:13.525Z,1016.85
2017-09-23T02:19:39.677Z,1016.79
2017-09-23T02:20:05.842Z,1016.79
2017-09-23T02:20:32.001Z,1016.84
2017-09-23T02:20:58.154Z,1016.83
2017-09-23T02:21:24.318Z,1016.83
2017-09-23T02:21:50.500Z,1016.83
2017-09-23T02:22:16.666Z,1016.77
2017-09-23T02:22:42.827Z,1016.79
2017-09-23T02:23:08.980Z,1016.82
2017-09-23T02:23:35.138Z,1016.76
2017-09-23T02:24:01.300Z,1016.79
2017-09-23T02:24:27.458Z,1016.81
2017-09-23T02:24:53.620Z,1016.79
2017-09-23T02:25:19.784Z,1016.82
2017-09-23T02:25:45.935Z,1016.79
2017-09-23T02:26:12.101Z,1016.82
2017-09-23T02:26:38.258Z,1016.85
2017-09-23T02:27:04.416Z,1016.83
2017-09-23T02:27:30.608Z,1016.81
2017-09-23T02:27:56.768Z,1016.82
2017-09-23T02:28:22.925Z,1016.87
2017-09-23T02:28:49.080Z,1016.85
2017-09-23T02:29:15.249Z,1016.85
2017-09-23T02:29:41.411Z,1016.84
2017-09-23T02:30:07.597Z,1016.86
2017-09-23T02:30:33.750Z,1016.86
2017-09-23T02:30:59.920Z,1016.82
2017-09-23T02:31:26.076Z,1016.88
2017-09-23T02:31:52.230Z,1016.82
2017-09-23T02:32:18.398Z,1016.88
2017-09-23T02:32:44.551Z,1016.86
2017-09-23T02:33:10.718Z,1016.84
2017-09-23T02:33:36.879Z,1016.87
2017-09-23T02:34:03.035Z,1016.85
2017-09-23T02:34:29.196Z,1016.85
2017-09-23T02:34:55.353Z,1016.89
2017-09-23T02:35:21.505Z,1016.86
2017-09-23T02:35:47.672Z,1016.86
2017-09-23T02:36:13.829Z,1016.86
2017-09-23T02:36:39.989Z,1016.88
2017-09-23T02:37:06.144Z,1016.86
2017-09-23T02:37:32.303Z,1016.88
2017-09-23T02:37:58.462Z,1016.86
2017-09-23T02:38:24.621Z,1016.87
2017-09-23T02:38:50.782Z,1016.82
2017-09-23T02:39:16.945Z,1016.85
2017-09-23T02:39:43.131Z,1016.86
2017-09-23T02:40:09.294Z,1016.86
2017-09-23T02:40:35.450Z,1016.86
2017-09-23T02:41:01.611Z,1016.85
2017-09-23T02:41:27.775Z,1016.85
2017-09-23T02:41:53.930Z,1016.85
2017-09-23T02:42:20.092Z,1016.81
2017-09-23T02:42:46.280Z,1016.84
2017-09-23T02:43:12.444Z,1016.86
2017-09-23T02:43:38.599Z,1016.85
2017-09-23T02:44:04.763Z,1016.84
2017-09-23T02:44:30.924Z,1016.84
2017-09-23T02:44:57.083Z,1016.84
2017-09-23T02:45:23.249Z,1016.86
2017-09-23T02:45:49.437Z,1016.85
2017-09-23T02:46:15.621Z,1016.84
2017-09-23T02:46:41.787Z,1016.84
2017-09-23T02:47:07.947Z,1016.82
2017-09-23T02:47:34.132Z,1016.85
2017-09-23T02:48:00.293Z,1016.87
2017-09-23T02:48:26.449Z,1016.82
2017-09-23T02:48:52.606Z,1016.84
2017-09-23T02:49:18.800Z,1016.85
2017-09-23T02:49:44.987Z,1016.87
2017-09-23T02:50:11.143Z,1016.87
2017-09-23T02:50:37.302Z,1016.86
2017-09-23T02:51:03.466Z,1016.88
2017-09-23T02:51:29.623Z,1016.84
2017-09-23T02:51:55.788Z,1016.84
2017-09-23T02:52:21.942Z,1016.81
2017-09-23T02:52:48.105Z,1016.83
2017-09-23T02:53:14.270Z,1016.8
2017-09-23T02:53:40.428Z,1016.83
2017-09-23T02:54:06.584Z,1016.88
2017-09-23T02:54:32.749Z,1016.86
2017-09-23T02:54:58.938Z,1016.85
2017-09-23T02:55:25.096Z,1016.89
2017-09-23T02:55:51.252Z,1016.82
2017-09-23T02:56:17.416Z,1016.83
2017-09-23T02:56:43.571Z,1016.85
2017-09-23T02:57:09.737Z,1016.86
2017-09-23T02:57:35.898Z,1016.86
2017-09-23T02:58:02.053Z,1016.83
2017-09-23T02:58:28.217Z,1016.82
2017-09-23T02:58:54.371Z,1016.84
2017-09-23T02:59:20.531Z,1016.85
2017-09-23T02:59:46.697Z,1016.85
2017-09-23T03:00:12.851Z,1016.83
2017-09-23T03:00:39.015Z,1016.84
2017-09-23T03:01:05.177Z,1016.84
2017-09-23T03:01:31.331Z,1016.88
2017-09-23T03:01:57.493Z,1016.88
2017-09-23T03:02:23.654Z,1016.87
2017-09-23T03:02:49.805Z,1016.9
2017-09-23T03:03:15.976Z,1016.93
2017-09-23T03:03:42.136Z,1016.93
2017-09-23T03:04:08.293Z,1016.91
2017-09-23T03:04:34.449Z,1016.89
2017-09-23T03:05:00.608Z,1016.93
2017-09-23T03:05:26.763Z,1016.94
2017-09-23T03:05:52.932Z,1016.96
2017-09-23T03:06:19.091Z,1016.94
2017-09-23T03:06:45.244Z,1016.92
2017-09-23T03:07:11.411Z,1016.92
2017-09-23T03:07:37.572Z,1016.93
2017-09-23T03:08:03.731Z,1016.96
2017-09-23T03:08:29.894Z,1016.97
2017-09-23T03:08:56.042Z,1016.96
2017-09-23T03:09:22.202Z,1016.95
2017-09-23T03:09:48.369Z,1016.93
2017-09-23T03:10:14.530Z,1016.95
2017-09-23T03:10:40.686Z,1016.94
2017-09-23T03:11:06.878Z,1016.96
2017-09-23T03:11:33.038Z,1016.93
2017-09-23T03:11:59.197Z,1016.95
2017-09-23T03:12:25.363Z,1016.96
2017-09-23T03:12:51.520Z,1016.96
2017-09-23T03:13:17.707Z,1016.94
2017-09-23T03:13:43.871Z,1017
2017-09-23T03:14:10.027Z,1016.96
2017-09-23T03:14:36.193Z,1016.97
2017-09-23T03:15:02.347Z,1016.94
2017-09-23T03:15:28.510Z,1017
2017-09-23T03:15:54.665Z,1016.96
2017-09-23T03:16:20.831Z,1016.96
2017-09-23T03:16:46.989Z,1016.95
2017-09-23T03:17:13.151Z,1016.98
2017-09-23T03:17:39.313Z,1016.92
2017-09-23T03:18:05.467Z,1016.93
2017-09-23T03:18:31.632Z,1016.95
2017-09-23T03:18:57.787Z,1016.96
2017-09-23T03:19:23.952Z,1016.92
2017-09-23T03:19:50.105Z,1016.95
2017-09-23T03:20:16.265Z,1016.98
2017-09-23T03:20:42.429Z,1016.96
2017-09-23T03:21:08.590Z,1016.94
2017-09-23T03:21:34.748Z,1016.92
2017-09-23T03:22:00.902Z,1016.94
2017-09-23T03:22:27.096Z,1016.96
2017-09-23T03:22:53.256Z,1016.96
2017-09-23T03:23:19.411Z,1016.96
2017-09-23T03:23:45.573Z,1016.95
2017-09-23T03:24:11.729Z,1016.93
2017-09-23T03:24:37.885Z,1016.97
2017-09-23T03:25:04.051Z,1016.95
2017-09-23T03:25:30.212Z,1016.92
2017-09-23T03:25:56.369Z,1016.91
2017-09-23T03:26:22.524Z,1016.94
2017-09-23T03:26:48.693Z,1016.94
2017-09-23T03:27:14.852Z,1016.94
2017-09-23T03:27:41.013Z,1016.93
2017-09-23T03:28:07.170Z,1016.93
2017-09-23T03:28:33.331Z,1016.92
2017-09-23T03:28:59.490Z,1016.9
2017-09-23T03:29:25.643Z,1016.9
2017-09-23T03:29:51.798Z,1016.88
2017-09-23T03:30:17.960Z,1016.89
2017-09-23T03:30:44.121Z,1016.87
2017-09-23T03:31:10.275Z,1016.9
2017-09-23T03:31:36.434Z,1016.88
2017-09-23T03:32:02.599Z,1016.88
2017-09-23T03:32:28.754Z,1016.89
2017-09-23T03:32:54.912Z,1016.88
2017-09-23T03:33:21.071Z,1016.89
2017-09-23T03:33:47.246Z,1016.89
2017-09-23T03:34:13.402Z,1016.88
2017-09-23T03:34:39.565Z,1016.9
2017-09-23T03:35:05.725Z,1016.89
2017-09-23T03:35:31.882Z,1016.85
2017-09-23T03:35:58.039Z,1016.87
2017-09-23T03:36:24.204Z,1016.85
2017-09-23T03:36:50.367Z,1016.89
2017-09-23T03:37:16.547Z,1016.87
2017-09-23T03:37:42.714Z,1016.89
2017-09-23T03:38:08.868Z,1016.89
2017-09-23T03:38:35.031Z,1016.89
2017-09-23T03:39:01.187Z,1016.88
2017-09-23T03:39:27.344Z,1016.87
2017-09-23T03:39:53.507Z,1016.9
2017-09-23T03:40:19.694Z,1016.88
2017-09-23T03:40:45.855Z,1016.87
2017-09-23T03:41:12.013Z,1016.89
2017-09-23T03:41:38.173Z,1016.9
2017-09-23T03:42:04.334Z,1016.9
2017-09-23T03:42:30.498Z,1016.92
2017-09-23T03:42:56.685Z,1016.9
2017-09-23T03:43:22.845Z,1016.9
2017-09-23T03:43:49.006Z,1016.93
2017-09-23T03:44:15.219Z,1016.89
2017-09-23T03:44:41.380Z,1016.9
2017-09-23T03:45:07.537Z,1016.88
2017-09-23T03:45:33.693Z,1016.92
2017-09-23T03:45:59.860Z,1016.88
2017-09-23T03:46:26.020Z,1016.91
2017-09-23T03:46:52.173Z,1016.94
2017-09-23T03:47:18.345Z,1016.91
2017-09-23T03:47:44.501Z,1016.94
2017-09-23T03:48:10.657Z,1016.94
2017-09-23T03:48:36.819Z,1016.95
2017-09-23T03:49:02.975Z,1016.94
2017-09-23T03:49:29.162Z,1016.93
2017-09-23T03:49:55.318Z,1016.96
2017-09-23T03:50:21.480Z,1016.95
2017-09-23T03:50:47.637Z,1016.95
2017-09-23T03:51:13.800Z,1016.94
2017-09-23T03:51:39.964Z,1016.93
2017-09-23T03:52:06.126Z,1016.94
2017-09-23T03:52:32.293Z,1016.91
2017-09-23T03:52:58.442Z,1016.92
2017-09-23T03:53:24.602Z,1016.93
2017-09-23T03:53:50.765Z,1016.92
2017-09-23T03:54:16.928Z,1016.97
2017-09-23T03:54:43.082Z,1016.94
2017-09-23T03:55:09.245Z,1016.97
2017-09-23T03:55:35.408Z,1016.93
2017-09-23T03:56:01.559Z,1016.95
2017-09-23T03:56:27.725Z,1016.95
2017-09-23T03:56:53.878Z,1016.95
2017-09-23T03:57:20.042Z,1016.93
2017-09-23T03:57:46.202Z,1016.98
2017-09-23T03:58:12.361Z,1016.96
2017-09-23T03:58:38.524Z,1016.97
2017-09-23T03:59:04.684Z,1016.97
2017-09-23T03:59:30.838Z,1016.95
2017-09-23T03:59:57.002Z,1016.99
2017-09-23T04:00:23.157Z,1016.99
2017-09-23T04:00:49.320Z,1016.95
2017-09-23T04:01:15.482Z,1016.95
2017-09-23T04:01:41.639Z,1016.98
2017-09-23T04:02:07.794Z,1016.98
2017-09-23T04:02:33.956Z,1016.97
2017-09-23T04:03:00.120Z,1016.97
2017-09-23T04:03:26.272Z,1016.97
2017-09-23T04:03:52.431Z,1017
2017-09-23T04:04:18.597Z,1016.96
2017-09-23T04:04:44.757Z,1016.98
2017-09-23T04:05:10.913Z,1016.96
2017-09-23T04:05:37.102Z,1016.96
2017-09-23T04:06:03.265Z,1017
2017-09-23T04:06:29.446Z,1016.96
2017-09-23T04:06:55.611Z,1016.95
2017-09-23T04:07:21.765Z,1016.95
2017-09-23T04:07:47.960Z,1016.95
2017-09-23T04:08:14.117Z,1017.01
2017-09-23T04:08:40.275Z,1016.97
2017-09-23T04:09:06.439Z,1016.99
2017-09-23T04:09:32.599Z,1016.97
2017-09-23T04:09:58.750Z,1016.95
2017-09-23T04:10:24.917Z,1016.98
2017-09-23T04:10:51.077Z,1016.98
2017-09-23T04:11:17.242Z,1016.95
2017-09-23T04:11:43.399Z,1016.99
2017-09-23T04:12:09.559Z,1016.98
2017-09-23T04:12:35.718Z,1016.99
2017-09-23T04:13:01.905Z,1017
2017-09-23T04:13:28.062Z,1016.97
2017-09-23T04:13:54.212Z,1016.98
2017-09-23T04:14:20.379Z,1017.05
2017-09-23T04:14:46.533Z,1017
2017-09-23T04:15:12.695Z,1016.99
2017-09-23T04:15:38.856Z,1016.99
2017-09-23T04:16:05.020Z,1017.03
2017-09-23T04:16:31.177Z,1017
2017-09-23T04:16:57.329Z,1016.98
2017-09-23T04:17:23.492Z,1017
2017-09-23T04:17:49.686Z,1016.99
2017-09-23T04:18:15.846Z,1016.98
2017-09-23T04:18:42.001Z,1016.97
2017-09-23T04:19:08.193Z,1016.97
2017-09-23T04:19:34.349Z,1016.96
2017-09-23T04:20:00.541Z,1016.97
2017-09-23T04:20:26.702Z,1016.96
2017-09-23T04:20:52.858Z,1016.96
2017-09-23T04:21:19.013Z,1016.96
2017-09-23T04:21:45.178Z,1016.99
2017-09-23T04:22:11.366Z,1017
2017-09-23T04:22:37.521Z,1016.99
2017-09-23T04:23:03.679Z,1017.01
2017-09-23T04:23:29.837Z,1016.99
2017-09-23T04:23:56.003Z,1017.02
2017-09-23T04:24:22.163Z,1017
2017-09-23T04:24:48.314Z,1017.01
2017-09-23T04:25:14.505Z,1017.01
2017-09-23T04:25:40.725Z,1017
2017-09-23T04:26:06.851Z,1017
2017-09-23T04:26:33.214Z,1016.99
2017-09-23T04:26:59.380Z,1017.03
2017-09-23T04:27:25.568Z,1017.02
2017-09-23T04:27:51.725Z,1017.01
2017-09-23T04:28:17.893Z,1017.01
2017-09-23T04:28:44.048Z,1017.02
2017-09-23T04:29:10.211Z,1016.99
2017-09-23T04:29:36.355Z,1017.01
2017-09-23T04:30:02.501Z,1017.03
2017-09-23T04:30:28.659Z,1016.99
2017-09-23T04:30:54.801Z,1017.02
2017-09-23T04:31:20.939Z,1017.03
2017-09-23T04:31:47.070Z,1017.07
2017-09-23T04:32:13.250Z,1017.05
2017-09-23T04:32:39.400Z,1017.01
2017-09-23T04:33:05.525Z,1017.01
2017-09-23T04:33:31.657Z,1017.05
2017-09-23T04:33:57.778Z,1017.03
2017-09-23T04:34:23.929Z,1017.03
2017-09-23T04:34:50.044Z,1017.06
2017-09-23T04:35:16.163Z,1017.06
2017-09-23T04:35:42.293Z,1017.03
2017-09-23T04:36:08.423Z,1017
2017-09-23T04:36:34.552Z,1017
2017-09-23T04:37:00.670Z,1017.03
2017-09-23T04:37:26.791Z,1017.02
2017-09-23T04:37:52.922Z,1017.02
2017-09-23T04:38:19.043Z,1017.03
2017-09-23T04:38:45.167Z,1016.97
2017-09-23T04:39:11.292Z,1016.99
2017-09-23T04:39:37.414Z,1016.99
2017-09-23T04:40:03.540Z,1016.97
2017-09-23T04:40:29.662Z,1016.99
2017-09-23T04:40:55.785Z,1016.99
2017-09-23T04:41:21.913Z,1016.99
2017-09-23T04:41:48.075Z,1016.99
2017-09-23T04:42:14.202Z,1016.96
2017-09-23T04:42:40.320Z,1016.97
2017-09-23T04:43:06.953Z,1016.99
2017-09-23T04:43:33.311Z,1017.01
2017-09-23T04:43:59.434Z,1017
2017-09-23T04:44:25.563Z,1016.99
2017-09-23T04:44:51.696Z,1017.01
2017-09-23T04:45:17.809Z,1017.02
2017-09-23T04:45:43.935Z,1016.99
2017-09-23T04:46:10.062Z,1017.03
2017-09-23T04:46:36.180Z,1017.07
2017-09-23T04:47:02.307Z,1017.05
2017-09-23T04:47:28.430Z,1017.1
2017-09-23T04:47:54.558Z,1017.08
2017-09-23T04:48:20.685Z,1017.09
2017-09-23T04:48:46.806Z,1017.12
2017-09-23T04:49:12.933Z,1017.09
2017-09-23T04:49:39.050Z,1017.13
2017-09-23T04:50:05.173Z,1017.09
2017-09-23T04:50:31.303Z,1017.13
2017-09-23T04:50:57.422Z,1017.11
2017-09-23T04:51:23.555Z,1017.12
2017-09-23T04:51:49.674Z,1017.07
2017-09-23T04:52:15.792Z,1017.09
2017-09-23T04:52:41.915Z,1017.09
2017-09-23T04:53:08.041Z,1017.06
2017-09-23T04:53:34.164Z,1017.06
2017-09-23T04:54:00.289Z,1017.09
2017-09-23T04:54:26.411Z,1017.05
2017-09-23T04:54:52.554Z,1017.07
2017-09-23T04:55:18.673Z,1017.12
2017-09-23T04:55:44.806Z,1017.06
2017-09-23T04:56:10.928Z,1017.11
2017-09-23T04:56:37.055Z,1017.08
2017-09-23T04:57:03.181Z,1017.09
2017-09-23T04:57:29.322Z,1017.14
2017-09-23T04:57:55.474Z,1017.13
2017-09-23T04:58:21.590Z,1017.09
2017-09-23T04:58:47.722Z,1017.11
2017-09-23T04:59:13.842Z,1017.11
2017-09-23T04:59:39.989Z,1017.1
2017-09-23T05:00:06.106Z,1017.05
2017-09-23T05:00:32.228Z,1017.11
2017-09-23T05:00:58.359Z,1017.12
2017-09-23T05:01:24.484Z,1017.1
2017-09-23T05:01:50.608Z,1017.08
2017-09-23T05:02:16.729Z,1017.1
2017-09-23T05:02:42.858Z,1017.13
2017-09-23T05:03:08.975Z,1017.13
2017-09-23T05:03:35.104Z,1017.15
2017-09-23T05:04:01.243Z,1017.09
2017-09-23T05:04:27.372Z,1017.15
2017-09-23T05:04:53.493Z,1017.1
2017-09-23T05:05:19.623Z,1017.16
2017-09-23T05:05:45.750Z,1017.13
2017-09-23T05:06:11.872Z,1017.12
2017-09-23T05:06:37.994Z,1017.13
2017-09-23T05:07:04.121Z,1017.15
2017-09-23T05:07:30.246Z,1017.18
2017-09-23T05:07:56.366Z,1017.18
2017-09-23T05:08:22.495Z,1017.19
2017-09-23T05:08:48.616Z,1017.17
2017-09-23T05:09:14.744Z,1017.23
2017-09-23T05:09:40.863Z,1017.23
2017-09-23T05:10:06.986Z,1017.24
2017-09-23T05:10:33.113Z,1017.24
2017-09-23T05:10:59.231Z,1017.23
2017-09-23T05:11:25.358Z,1017.22
2017-09-23T05:11:51.479Z,1017.21
2017-09-23T05:12:17.603Z,1017.23
2017-09-23T05:12:43.730Z,1017.23
2017-09-23T05:13:09.850Z,1017.25
2017-09-23T05:13:35.970Z,1017.28
2017-09-23T05:14:02.104Z,1017.31
2017-09-23T05:14:28.225Z,1017.28
2017-09-23T05:14:54.366Z,1017.27
2017-09-23T05:15:20.496Z,1017.3
2017-09-23T05:15:46.618Z,1017.28
2017-09-23T05:16:12.749Z,1017.29
2017-09-23T05:16:38.866Z,1017.31
2017-09-23T05:17:04.993Z,1017.31
2017-09-23T05:17:31.115Z,1017.34